createdAt,value
2023-04-20T00:00:21.987Z,97973.09
2023-04-20T00:02:23.616Z,97969.75
2023-04-20T00:04:25.158Z,97962.91
2023-04-20T00:06:29.707Z,97965.44
2023-04-20T00:08:31.204Z,97958.69
2023-04-20T00:10:32.500Z,97967.28
2023-04-20T00:12:33.843Z,97967.28
2023-04-20T00:14:35.230Z,97970.69
2023-04-20T00:16:36.603Z,97965.56
2023-04-20T00:18:37.932Z,97970.63
2023-04-20T00:20:39.394Z,97965.50
2023-04-20T00:22:40.713Z,97970.63
2023-04-20T00:24:42.049Z,97973.97
2023-04-20T00:26:43.408Z,97970.53
2023-04-20T00:28:44.733Z,97973.03
2023-04-20T00:30:46.136Z,97966.19
2023-04-20T00:32:47.506Z,97971.34
2023-04-20T00:34:48.892Z,97968.75
2023-04-20T00:36:50.475Z,97983.19
2023-04-20T00:38:51.776Z,97982.34
2023-04-20T00:40:54.185Z,97978.84
2023-04-20T00:42:55.640Z,97983.03
2023-04-20T00:44:56.954Z,97985.56
2023-04-20T00:46:58.309Z,97981.34
2023-04-20T00:48:59.596Z,97980.50
2023-04-20T00:51:00.891Z,97980.56
2023-04-20T00:53:02.233Z,97974.59
2023-04-20T00:55:03.552Z,97970.38
2023-04-20T00:57:05.001Z,97967.78
2023-04-20T00:59:06.597Z,97977.16
2023-04-20T01:01:08.939Z,97971.22
2023-04-20T01:03:10.418Z,97979.78
2023-04-20T01:05:12.285Z,97974.69
2023-04-20T01:07:13.642Z,97970.50
2023-04-20T01:09:15.330Z,97966.28
2023-04-20T01:11:16.869Z,97971.41
2023-04-20T01:13:18.163Z,97965.56
2023-04-20T01:15:19.461Z,97968.91
2023-04-20T01:17:20.816Z,97961.19
2023-04-20T01:19:22.385Z,97963.78
2023-04-20T01:21:23.721Z,97961.25
2023-04-20T01:23:25.066Z,97968.13
2023-04-20T01:25:26.354Z,97960.53
2023-04-20T01:27:27.702Z,97957.13
2023-04-20T01:29:29.805Z,97961.31
2023-04-20T01:31:31.325Z,97959.53
2023-04-20T01:33:32.673Z,97954.44
2023-04-20T01:35:33.965Z,97956.22
2023-04-20T01:37:35.457Z,97955.34
2023-04-20T01:39:36.843Z,97955.41
2023-04-20T01:41:38.168Z,97944.28
2023-04-20T01:43:39.540Z,97948.56
2023-04-20T01:45:40.895Z,97956.19
2023-04-20T01:47:42.220Z,97960.38
2023-04-20T01:49:43.566Z,97958.63
2023-04-20T01:51:44.851Z,97959.47
2023-04-20T01:53:46.164Z,97952.66
2023-04-20T01:55:47.505Z,97960.25
2023-04-20T01:57:48.887Z,97960.16
2023-04-20T01:59:50.359Z,97971.25
2023-04-20T02:01:52.003Z,97957.56
2023-04-20T02:03:53.554Z,97961.75
2023-04-20T02:05:54.980Z,97964.16
2023-04-20T02:07:56.363Z,97968.41
2023-04-20T02:09:57.667Z,97961.59
2023-04-20T02:11:58.967Z,97958.19
2023-04-20T02:14:00.328Z,97954.00
2023-04-20T02:16:02.196Z,97959.16
2023-04-20T02:18:03.654Z,97956.63
2023-04-20T02:20:09.324Z,97954.91
2023-04-20T02:22:10.663Z,97962.59
2023-04-20T02:24:11.974Z,97953.28
2023-04-20T02:26:13.318Z,97952.38
2023-04-20T02:28:14.648Z,97955.88
2023-04-20T02:30:16.067Z,97955.91
2023-04-20T02:32:17.372Z,97959.34
2023-04-20T02:34:18.687Z,97961.09
2023-04-20T02:36:20.021Z,97965.34
2023-04-20T02:38:21.311Z,97963.66
2023-04-20T02:40:22.632Z,97956.88
2023-04-20T02:42:23.967Z,97952.44
2023-04-20T02:44:25.428Z,97954.50
2023-04-20T02:46:26.818Z,97952.38
2023-04-20T02:48:28.162Z,97950.19
2023-04-20T02:50:29.502Z,97946.22
2023-04-20T02:52:30.809Z,97949.81
2023-04-20T02:54:32.434Z,97947.97
2023-04-20T02:56:33.775Z,97945.97
2023-04-20T02:58:35.079Z,97952.00
2023-04-20T03:00:36.391Z,97960.56
2023-04-20T03:02:37.894Z,97961.47
2023-04-20T03:04:39.777Z,97962.44
2023-04-20T03:06:41.118Z,97959.09
2023-04-20T03:08:42.474Z,97954.81
2023-04-20T03:10:43.767Z,97961.56
2023-04-20T03:12:45.084Z,97958.06
2023-04-20T03:14:46.391Z,97949.41
2023-04-20T03:16:47.815Z,97964.56
2023-04-20T03:18:49.115Z,97965.25
2023-04-20T03:20:50.415Z,97965.94
2023-04-20T03:22:51.711Z,97963.25
2023-04-20T03:24:53.562Z,97967.34
2023-04-20T03:26:55.248Z,97971.53
2023-04-20T03:28:56.552Z,97970.63
2023-04-20T03:30:57.848Z,97979.13
2023-04-20T03:32:59.425Z,97979.13
2023-04-20T03:35:00.807Z,97983.41
2023-04-20T03:37:02.189Z,97980.91
2023-04-20T03:39:04.390Z,97984.38
2023-04-20T03:41:05.797Z,97991.28
2023-04-20T03:43:07.141Z,97983.69
2023-04-20T03:45:08.475Z,98005.03
2023-04-20T03:47:10.935Z,97974.50
2023-04-20T03:49:12.271Z,97972.06
2023-04-20T03:51:13.605Z,97975.53
2023-04-20T03:53:14.945Z,97979.84
2023-04-20T03:55:16.241Z,97979.88
2023-04-20T03:57:17.542Z,97977.41
2023-04-20T03:59:18.999Z,97985.97
2023-04-20T04:01:20.386Z,97973.25
2023-04-20T04:03:21.920Z,97987.81
2023-04-20T04:05:23.473Z,97983.63
2023-04-20T04:07:25.007Z,97991.41
2023-04-20T04:09:26.658Z,97980.47
2023-04-20T04:11:30.115Z,97983.94
2023-04-20T04:13:33.758Z,97974.66
2023-04-20T04:15:35.895Z,97974.78
2023-04-20T04:17:37.227Z,97979.94
2023-04-20T04:19:38.653Z,97974.97
2023-04-20T04:21:39.995Z,97980.91
2023-04-20T04:23:42.437Z,97974.97
2023-04-20T04:25:43.773Z,97978.31
2023-04-20T04:27:46.478Z,97977.41
2023-04-20T04:29:49.997Z,97974.84
2023-04-20T04:31:51.420Z,97974.84
2023-04-20T04:33:52.803Z,97975.63
2023-04-20T04:35:55.393Z,97972.19
2023-04-20T04:37:56.770Z,97983.13
2023-04-20T04:39:58.258Z,97989.84
2023-04-20T04:41:59.587Z,97982.88
2023-04-20T04:44:01.187Z,97979.34
2023-04-20T04:46:02.517Z,97974.91
2023-04-20T04:48:04.389Z,97988.31
2023-04-20T04:50:07.202Z,97987.28
2023-04-20T04:52:08.534Z,97988.06
2023-04-20T04:54:09.858Z,97989.63
2023-04-20T04:56:11.639Z,97994.66
2023-04-20T04:58:12.944Z,97991.22
2023-04-20T05:00:14.266Z,97987.03
2023-04-20T05:02:15.724Z,97986.19
2023-04-20T05:04:17.289Z,97985.38
2023-04-20T05:06:18.740Z,97982.06
2023-04-20T05:08:20.099Z,97999.13
2023-04-20T05:10:21.406Z,97997.50
2023-04-20T05:12:22.773Z,98000.13
2023-04-20T05:14:24.076Z,98001.06
2023-04-20T05:16:25.610Z,97998.63
2023-04-20T05:18:26.967Z,98004.59
2023-04-20T05:20:28.268Z,98000.44
2023-04-20T05:22:29.560Z,98001.34
2023-04-20T05:24:30.882Z,98002.28
2023-04-20T05:26:32.224Z,98004.91
2023-04-20T05:28:33.821Z,98000.69
2023-04-20T05:30:35.413Z,98004.97
2023-04-20T05:32:36.856Z,98002.44
2023-04-20T05:34:38.177Z,98008.38
2023-04-20T05:36:39.474Z,98010.13
2023-04-20T05:38:40.806Z,98012.75
2023-04-20T05:40:42.105Z,98017.88
2023-04-20T05:42:43.520Z,98018.78
2023-04-20T05:44:44.856Z,98018.81
2023-04-20T05:46:46.234Z,98019.69
2023-04-20T05:48:47.640Z,98021.38
2023-04-20T05:50:51.875Z,98014.59
2023-04-20T05:52:53.175Z,98008.63
2023-04-20T05:54:54.484Z,98002.63
2023-04-20T05:56:55.826Z,98006.91
2023-04-20T05:58:57.154Z,97998.41
2023-04-20T06:00:58.492Z,98002.66
2023-04-20T06:03:00.061Z,97998.41
2023-04-20T06:05:02.255Z,98002.59
2023-04-20T06:07:03.656Z,98010.09
2023-04-20T06:09:05.238Z,98011.72
2023-04-20T06:11:06.600Z,98015.78
2023-04-20T06:13:07.911Z,98013.94
2023-04-20T06:15:10.801Z,98006.16
2023-04-20T06:17:12.219Z,98007.72
2023-04-20T06:19:13.667Z,98008.53
2023-04-20T06:21:16.056Z,98005.91
2023-04-20T06:23:17.374Z,98011.81
2023-04-20T06:25:18.734Z,98014.34
2023-04-20T06:27:20.059Z,98020.38
2023-04-20T06:29:21.417Z,98013.63
2023-04-20T06:31:22.759Z,98019.66
2023-04-20T06:33:24.114Z,98018.03
2023-04-20T06:35:26.441Z,98019.84
2023-04-20T06:37:28.104Z,98032.69
2023-04-20T06:39:29.511Z,98016.53
2023-04-20T06:41:30.874Z,98023.44
2023-04-20T06:43:32.201Z,98021.81
2023-04-20T06:45:34.287Z,98029.53
2023-04-20T06:47:36.185Z,98027.94
2023-04-20T06:49:39.253Z,98027.97
2023-04-20T06:51:40.562Z,98029.72
2023-04-20T06:53:41.900Z,98032.34
2023-04-20T06:55:43.435Z,98026.41
2023-04-20T06:57:44.849Z,98023.88
2023-04-20T06:59:46.216Z,98021.38
2023-04-20T07:01:47.587Z,98017.97
2023-04-20T07:03:49.289Z,98022.25
2023-04-20T07:05:50.736Z,98019.72
2023-04-20T07:07:52.035Z,98012.91
2023-04-20T07:09:53.366Z,98009.56
2023-04-20T07:11:56.453Z,98013.78
2023-04-20T07:13:57.798Z,98021.47
2023-04-20T07:15:59.146Z,98014.66
2023-04-20T07:18:00.563Z,98010.41
2023-04-20T07:20:08.845Z,98018.03
2023-04-20T07:22:10.286Z,98023.13
2023-04-20T07:24:11.606Z,98021.41
2023-04-20T07:26:12.903Z,98010.31
2023-04-20T07:28:14.209Z,98018.78
2023-04-20T07:30:15.561Z,98019.50
2023-04-20T07:32:16.908Z,98021.09
2023-04-20T07:34:18.555Z,98030.31
2023-04-20T07:36:21.646Z,98032.69
2023-04-20T07:38:22.945Z,98035.97
2023-04-20T07:40:24.257Z,98041.00
2023-04-20T07:42:25.632Z,98040.03
2023-04-20T07:44:27.167Z,98037.47
2023-04-20T07:46:28.978Z,98045.09
2023-04-20T07:48:30.309Z,98038.25
2023-04-20T07:50:31.880Z,98041.69
2023-04-20T07:52:33.285Z,98043.44
2023-04-20T07:54:34.733Z,98052.03
2023-04-20T07:56:36.093Z,98053.81
2023-04-20T07:58:39.136Z,98053.06
2023-04-20T08:00:40.453Z,98051.38
2023-04-20T08:02:42.020Z,98051.50
2023-04-20T08:04:44.654Z,98044.78
2023-04-20T08:06:46.184Z,98048.25
2023-04-20T08:08:47.508Z,98053.44
2023-04-20T08:10:48.855Z,98051.78
2023-04-20T08:12:52.643Z,98052.69
2023-04-20T08:14:54.193Z,98053.63
2023-04-20T08:16:55.683Z,98063.91
2023-04-20T08:18:57.049Z,98058.81
2023-04-20T08:20:58.399Z,98056.31
2023-04-20T08:22:59.691Z,98055.47
2023-04-20T08:25:00.987Z,98052.06
2023-04-20T08:27:02.417Z,98050.44
2023-04-20T08:29:03.704Z,98053.03
2023-04-20T08:31:05.122Z,98050.50
2023-04-20T08:33:06.788Z,98047.16
2023-04-20T08:35:08.682Z,98050.59
2023-04-20T08:37:10.038Z,98037.00
2023-04-20T08:39:11.645Z,98038.69
2023-04-20T08:41:16.244Z,98042.91
2023-04-20T08:43:17.539Z,98044.63
2023-04-20T08:45:18.848Z,98039.53
2023-04-20T08:47:20.194Z,98033.53
2023-04-20T08:49:21.699Z,98033.53
2023-04-20T08:51:23.169Z,98025.75
2023-04-20T08:53:24.479Z,98040.13
2023-04-20T08:55:25.785Z,98025.56
2023-04-20T08:57:27.249Z,98034.78
2023-04-20T08:59:28.789Z,98032.94
2023-04-20T09:01:35.555Z,98035.38
2023-04-20T09:03:37.813Z,98033.50
2023-04-20T09:05:40.018Z,98051.31
2023-04-20T09:07:41.317Z,98027.41
2023-04-20T09:09:42.625Z,98034.16
2023-04-20T09:11:44.052Z,98036.75
2023-04-20T09:13:45.477Z,98030.78
2023-04-20T09:15:46.770Z,98029.16
2023-04-20T09:17:48.145Z,98029.16
2023-04-20T09:19:49.465Z,98028.44
2023-04-20T09:21:51.081Z,98043.84
2023-04-20T09:23:52.383Z,98040.50
2023-04-20T09:25:53.737Z,98038.03
2023-04-20T09:27:55.038Z,98036.41
2023-04-20T09:29:56.742Z,98034.72
2023-04-20T09:31:58.091Z,98029.72
2023-04-20T09:33:59.510Z,98033.19
2023-04-20T09:36:00.803Z,98033.28
2023-04-20T09:38:02.117Z,98027.38
2023-04-20T09:40:03.468Z,98026.59
2023-04-20T09:42:05.397Z,98028.34
2023-04-20T09:44:06.817Z,98022.47
2023-04-20T09:46:08.148Z,98025.94
2023-04-20T09:48:09.508Z,98022.50
2023-04-20T09:50:24.801Z,98020.00
2023-04-20T09:52:32.131Z,98020.94
2023-04-20T09:54:33.506Z,98019.22
2023-04-20T09:56:34.984Z,98012.44
2023-04-20T09:58:36.515Z,98013.31
2023-04-20T10:00:37.839Z,98020.13
2023-04-20T10:02:40.280Z,98021.00
2023-04-20T10:04:41.871Z,97864.66
2023-04-20T10:06:43.250Z,98021.84
2023-04-20T10:08:44.595Z,98022.69
2023-04-20T10:10:46.298Z,98023.53
2023-04-20T10:12:47.757Z,98021.78
2023-04-20T10:14:49.090Z,98018.44
2023-04-20T10:16:50.784Z,98012.38
2023-04-20T10:18:52.349Z,98010.59
2023-04-20T10:20:53.784Z,98013.94
2023-04-20T10:22:55.203Z,98007.94
2023-04-20T10:24:56.503Z,98015.53
2023-04-20T10:26:58.039Z,98012.91
2023-04-20T10:28:59.409Z,98010.31
2023-04-20T10:31:01.062Z,98012.81
2023-04-20T10:33:02.473Z,98012.75
2023-04-20T10:35:03.983Z,98008.44
2023-04-20T10:37:06.953Z,98004.19
2023-04-20T10:39:08.622Z,98009.22
2023-04-20T10:41:09.956Z,98002.41
2023-04-20T10:43:11.260Z,98002.41
2023-04-20T10:45:12.751Z,97996.44
2023-04-20T10:47:14.973Z,97992.19
2023-04-20T10:49:17.024Z,97991.34
2023-04-20T10:51:18.662Z,97994.75
2023-04-20T10:53:20.272Z,97990.53
2023-04-20T10:55:21.593Z,97987.16
2023-04-20T10:57:22.886Z,97980.41
2023-04-20T10:59:24.862Z,97980.41
2023-04-20T11:01:26.258Z,97981.31
2023-04-20T11:03:27.698Z,97980.53
2023-04-20T11:05:29.199Z,97980.53
2023-04-20T11:07:30.551Z,97969.56
2023-04-20T11:09:33.855Z,97971.31
2023-04-20T11:11:37.403Z,97966.28
2023-04-20T11:13:38.752Z,97968.03
2023-04-20T11:15:40.069Z,97969.81
2023-04-20T11:17:41.507Z,97970.66
2023-04-20T11:19:42.816Z,97963.97
2023-04-20T11:21:44.103Z,97961.44
2023-04-20T11:23:45.662Z,97966.53
2023-04-20T11:25:46.999Z,97958.84
2023-04-20T11:27:48.311Z,97958.88
2023-04-20T11:29:49.628Z,97963.97
2023-04-20T11:31:51.041Z,97969.94
2023-04-20T11:33:52.558Z,97958.00
2023-04-20T11:35:53.953Z,97963.13
2023-04-20T11:37:57.599Z,97958.06
2023-04-20T11:39:58.916Z,97962.28
2023-04-20T11:42:00.247Z,97959.66
2023-04-20T11:44:02.296Z,97956.91
2023-04-20T11:46:03.672Z,97954.34
2023-04-20T11:48:05.214Z,97955.13
2023-04-20T11:50:06.580Z,97944.78
2023-04-20T11:52:07.901Z,97949.00
2023-04-20T11:54:09.222Z,97942.94
2023-04-20T11:56:10.703Z,97950.47
2023-04-20T11:58:12.000Z,97947.06
2023-04-20T12:00:13.323Z,97937.66
2023-04-20T12:02:14.685Z,97939.34
2023-04-20T12:04:16.866Z,97939.31
2023-04-20T12:06:18.427Z,97941.88
2023-04-20T12:08:19.731Z,97940.06
2023-04-20T12:10:21.149Z,97936.59
2023-04-20T12:12:23.600Z,97938.94
2023-04-20T12:14:26.519Z,97937.97
2023-04-20T12:16:27.920Z,97928.50
2023-04-20T12:18:29.384Z,97930.06
2023-04-20T12:20:30.667Z,97933.47
2023-04-20T12:22:31.976Z,97926.59
2023-04-20T12:24:33.325Z,97931.72
2023-04-20T12:26:38.818Z,97919.78
2023-04-20T12:28:40.392Z,97930.78
2023-04-20T12:30:41.747Z,97924.03
2023-04-20T12:32:43.076Z,97929.44
2023-04-20T12:34:44.417Z,97925.13
2023-04-20T12:36:45.733Z,97921.38
2023-04-20T12:38:47.034Z,97910.81
2023-04-20T12:40:48.389Z,97911.25
2023-04-20T12:42:49.719Z,97910.75
2023-04-20T12:44:51.073Z,97907.81
2023-04-20T12:46:52.443Z,97905.69
2023-04-20T12:48:53.829Z,97895.59
2023-04-20T12:50:55.131Z,97889.38
2023-04-20T12:52:58.434Z,97887.22
2023-04-20T12:54:59.955Z,97885.22
2023-04-20T12:57:02.517Z,97887.16
2023-04-20T12:59:06.821Z,97888.44
2023-04-20T13:01:08.244Z,97882.53
2023-04-20T13:03:09.719Z,97876.91
2023-04-20T13:05:11.125Z,97876.47
2023-04-20T13:07:12.460Z,97884.31
2023-04-20T13:09:13.828Z,97872.44
2023-04-20T13:11:16.923Z,97872.63
2023-04-20T13:13:18.263Z,97864.16
2023-04-20T13:15:31.828Z,97879.94
2023-04-20T13:17:39.421Z,97872.91
2023-04-20T13:19:40.888Z,97878.41
2023-04-20T13:21:42.208Z,97872.69
2023-04-20T13:23:43.539Z,97877.94
2023-04-20T13:25:44.856Z,97864.50
2023-04-20T13:27:49.212Z,97867.06
2023-04-20T13:29:50.748Z,97869.53
2023-04-20T13:31:52.056Z,97868.63
2023-04-20T13:33:54.673Z,97866.00
2023-04-20T13:35:56.175Z,97867.63
2023-04-20T13:37:57.553Z,97864.16
2023-04-20T13:39:58.867Z,97865.00
2023-04-20T13:42:00.171Z,97864.09
2023-04-20T13:44:02.403Z,97859.78
2023-04-20T13:46:03.750Z,97862.25
2023-04-20T13:48:05.205Z,97862.97
2023-04-20T13:50:06.691Z,97867.34
2023-04-20T13:52:08.011Z,97865.91
2023-04-20T13:54:09.324Z,97861.81
2023-04-20T13:56:10.738Z,97862.03
2023-04-20T13:58:12.101Z,97862.19
2023-04-20T14:00:13.405Z,97861.47
2023-04-20T14:02:14.723Z,97862.47
2023-04-20T14:04:17.129Z,97861.63
2023-04-20T14:06:18.692Z,97862.63
2023-04-20T14:08:20.759Z,97859.28
2023-04-20T14:10:22.064Z,97849.16
2023-04-20T14:12:23.421Z,97855.38
2023-04-20T14:14:24.715Z,97858.47
2023-04-20T14:16:26.178Z,97850.25
2023-04-20T14:18:27.613Z,97852.47
2023-04-20T14:20:28.931Z,97854.03
2023-04-20T14:22:35.939Z,97856.34
2023-04-20T14:24:37.433Z,97856.72
2023-04-20T14:26:38.756Z,97861.50
2023-04-20T14:28:40.063Z,97855.72
2023-04-20T14:30:41.468Z,97854.78
2023-04-20T14:32:42.839Z,97858.84
2023-04-20T14:34:44.164Z,97854.44
2023-04-20T14:36:45.470Z,97846.59
2023-04-20T14:38:46.783Z,97836.06
2023-04-20T14:40:48.598Z,97849.09
2023-04-20T14:42:49.893Z,97845.22
2023-04-20T14:44:53.946Z,97842.66
2023-04-20T14:46:57.125Z,97841.06
2023-04-20T14:48:58.623Z,97844.31
2023-04-20T14:51:00.442Z,97849.66
2023-04-20T14:53:02.207Z,97844.13
2023-04-20T14:55:04.157Z,97849.22
2023-04-20T14:57:05.517Z,97847.47
2023-04-20T14:59:06.905Z,97835.03
2023-04-20T15:01:08.218Z,97834.94
2023-04-20T15:03:09.805Z,97847.22
2023-04-20T15:05:11.516Z,97845.84
2023-04-20T15:07:12.925Z,97842.78
2023-04-20T15:09:14.836Z,97848.09
2023-04-20T15:11:16.171Z,97848.97
2023-04-20T15:13:17.460Z,97843.06
2023-04-20T15:15:18.804Z,97847.72
2023-04-20T15:17:20.453Z,97837.44
2023-04-20T15:19:22.830Z,97837.84
2023-04-20T15:21:24.135Z,97842.38
2023-04-20T15:23:25.500Z,97839.84
2023-04-20T15:25:26.798Z,97841.66
2023-04-20T15:27:28.096Z,97842.72
2023-04-20T15:29:29.607Z,97848.13
2023-04-20T15:31:31.196Z,97831.94
2023-04-20T15:33:32.589Z,97838.00
2023-04-20T15:35:33.912Z,97843.03
2023-04-20T15:37:35.330Z,97842.53
2023-04-20T15:39:36.667Z,97852.06
2023-04-20T15:41:37.957Z,97842.81
2023-04-20T15:43:39.473Z,97843.78
2023-04-20T15:45:43.388Z,97843.44
2023-04-20T15:47:46.039Z,97845.84
2023-04-20T15:49:47.391Z,97842.59
2023-04-20T15:51:48.743Z,97842.69
2023-04-20T15:53:50.896Z,97841.38
2023-04-20T15:55:52.297Z,97836.88
2023-04-20T15:57:57.307Z,97846.50
2023-04-20T15:59:58.792Z,97847.50
2023-04-20T16:02:00.189Z,97848.28
2023-04-20T16:04:01.917Z,97841.81
2023-04-20T16:06:03.338Z,97839.75
2023-04-20T16:08:05.599Z,97836.94
2023-04-20T16:10:10.191Z,97840.56
2023-04-20T16:12:11.547Z,97835.56
2023-04-20T16:14:12.854Z,97836.53
2023-04-20T16:16:14.184Z,97838.16
2023-04-20T16:18:16.017Z,97839.16
2023-04-20T16:20:17.359Z,97839.69
2023-04-20T16:22:18.718Z,97844.03
2023-04-20T16:24:20.227Z,97845.81
2023-04-20T16:26:21.777Z,97851.88
2023-04-20T16:28:23.134Z,97846.81
2023-04-20T16:30:27.235Z,97849.16
2023-04-20T16:32:28.628Z,97851.22
2023-04-20T16:34:31.540Z,97851.78
2023-04-20T16:36:33.056Z,97859.69
2023-04-20T16:38:34.392Z,97846.09
2023-04-20T16:40:35.718Z,97855.53
2023-04-20T16:42:39.832Z,97860.63
2023-04-20T16:44:41.994Z,97859.72
2023-04-20T16:46:44.142Z,97853.09
2023-04-20T16:48:45.522Z,97858.31
2023-04-20T16:50:46.813Z,97859.88
2023-04-20T16:52:48.181Z,97861.13
2023-04-20T16:54:49.605Z,97870.38
2023-04-20T16:56:51.248Z,97874.03
2023-04-20T16:58:52.585Z,97868.53
2023-04-20T17:00:56.634Z,97867.56
2023-04-20T17:02:58.254Z,97867.00
2023-04-20T17:04:59.682Z,97870.94
2023-04-20T17:07:04.054Z,97870.03
2023-04-20T17:09:07.111Z,97872.19
2023-04-20T17:11:08.974Z,97869.31
2023-04-20T17:13:10.476Z,97875.34
2023-04-20T17:15:11.824Z,97875.00
2023-04-20T17:17:13.142Z,97876.63
2023-04-20T17:19:14.482Z,97875.25
2023-04-20T17:21:15.808Z,97887.88
2023-04-20T17:23:18.013Z,97891.00
2023-04-20T17:25:19.402Z,97888.25
2023-04-20T17:27:24.483Z,97891.75
2023-04-20T17:29:26.765Z,97887.53
2023-04-20T17:31:28.214Z,97890.09
2023-04-20T17:33:29.582Z,97894.19
2023-04-20T17:35:30.876Z,97882.00
2023-04-20T17:37:32.255Z,97882.78
2023-04-20T17:39:33.534Z,97887.34
2023-04-20T17:41:35.640Z,97890.16
2023-04-20T17:43:40.445Z,97885.06
2023-04-20T17:45:44.672Z,97890.25
2023-04-20T17:47:46.139Z,97897.94
2023-04-20T17:49:47.511Z,97884.72
2023-04-20T17:51:48.842Z,97888.25
2023-04-20T17:53:50.142Z,97892.34
2023-04-20T17:55:51.435Z,97890.72
2023-04-20T17:57:52.759Z,97898.41
2023-04-20T17:59:57.018Z,97895.00
2023-04-20T18:01:58.401Z,97898.47
2023-04-20T18:03:59.968Z,97893.28
2023-04-20T18:06:04.546Z,97897.53
2023-04-20T18:08:10.255Z,97908.63
2023-04-20T18:10:18.455Z,97906.06
2023-04-20T18:12:19.885Z,97914.59
2023-04-20T18:14:21.354Z,97918.78
2023-04-20T18:16:23.068Z,97912.78
2023-04-20T18:18:24.854Z,97920.41
2023-04-20T18:20:26.174Z,97921.34
2023-04-20T18:22:30.700Z,97914.69
2023-04-20T18:24:32.028Z,97924.97
2023-04-20T18:26:33.363Z,97927.56
2023-04-20T18:28:37.780Z,97925.00
2023-04-20T18:30:42.290Z,97922.50
2023-04-20T18:32:43.697Z,97932.66
2023-04-20T18:34:45.058Z,97933.44
2023-04-20T18:36:49.400Z,97936.78
2023-04-20T18:39:00.155Z,97936.69
2023-04-20T18:41:05.252Z,97935.41
2023-04-20T18:43:06.783Z,97943.13
2023-04-20T18:45:08.109Z,97943.91
2023-04-20T18:47:09.465Z,97936.66
2023-04-20T18:49:11.581Z,97938.50
2023-04-20T18:51:15.941Z,97930.94
2023-04-20T18:53:17.311Z,97938.72
2023-04-20T18:55:18.631Z,97932.84
2023-04-20T18:57:23.967Z,97934.66
2023-04-20T18:59:25.533Z,97931.38
2023-04-20T19:01:27.265Z,97938.22
2023-04-20T19:03:28.824Z,97939.19
2023-04-20T19:05:33.655Z,97938.34
2023-04-20T19:07:35.119Z,97933.31
2023-04-20T19:09:36.410Z,97940.13
2023-04-20T19:11:40.547Z,97924.81
2023-04-20T19:13:44.603Z,97915.94
2023-04-20T19:15:46.027Z,97918.66
2023-04-20T19:17:47.344Z,97924.53
2023-04-20T19:19:50.941Z,97929.81
2023-04-20T19:21:53.811Z,97808.94
2023-04-20T19:23:58.156Z,97924.78
2023-04-20T19:25:59.465Z,97927.06
2023-04-20T19:28:00.773Z,97927.47
2023-04-20T19:30:02.109Z,97926.47
2023-04-20T19:32:03.481Z,97942.16
2023-04-20T19:34:04.841Z,97939.84
2023-04-20T19:36:09.021Z,97940.44
2023-04-20T19:38:10.414Z,97933.78
2023-04-20T19:40:14.775Z,97935.13
2023-04-20T19:42:16.458Z,97937.59
2023-04-20T19:44:18.001Z,97932.59
2023-04-20T19:46:19.486Z,97928.31
2023-04-20T19:48:20.828Z,97930.94
2023-04-20T19:50:22.136Z,97939.13
2023-04-20T19:52:23.460Z,97940.16
2023-04-20T19:54:27.602Z,97945.41
2023-04-20T19:56:28.927Z,97805.50
2023-04-20T19:58:33.223Z,97937.88
2023-04-20T20:00:37.781Z,97941.22
2023-04-20T20:02:39.281Z,97932.59
2023-04-20T20:04:40.712Z,97942.22
2023-04-20T20:06:44.045Z,97939.41
2023-04-20T20:08:51.588Z,97929.69
2023-04-20T20:10:52.884Z,97932.94
2023-04-20T20:12:54.311Z,97923.91
2023-04-20T20:14:55.738Z,97932.97
2023-04-20T20:16:57.323Z,97930.63
2023-04-20T20:18:59.383Z,97933.28
2023-04-20T20:21:00.675Z,97929.06
2023-04-20T20:23:02.015Z,97928.88
2023-04-20T20:25:05.064Z,97809.22
2023-04-20T20:27:06.431Z,97935.25
2023-04-20T20:29:07.744Z,97935.28
2023-04-20T20:31:09.167Z,97930.19
2023-04-20T20:33:10.676Z,97933.19
2023-04-20T20:35:13.043Z,97935.59
2023-04-20T20:37:14.970Z,97934.69
2023-04-20T20:39:16.491Z,97940.63
2023-04-20T20:41:18.219Z,97938.13
2023-04-20T20:43:19.829Z,97936.41
2023-04-20T20:45:21.905Z,97936.38
2023-04-20T20:47:23.419Z,97931.22
2023-04-20T20:49:25.088Z,97936.31
2023-04-20T20:51:26.411Z,97938.81
2023-04-20T20:53:27.747Z,97931.94
2023-04-20T20:55:29.048Z,97933.63
2023-04-20T20:57:30.569Z,97930.16
2023-04-20T20:59:31.888Z,97936.03
2023-04-20T21:01:33.265Z,97928.34
2023-04-20T21:03:34.877Z,97933.41
2023-04-20T21:05:36.510Z,97927.44
2023-04-20T21:07:37.860Z,97922.28
2023-04-20T21:09:39.206Z,97929.03
2023-04-20T21:11:40.610Z,97931.56
2023-04-20T21:13:41.934Z,97933.31
2023-04-20T21:15:43.331Z,97941.81
2023-04-20T21:17:44.801Z,97944.34
2023-04-20T21:19:46.157Z,97941.00
2023-04-20T21:21:47.505Z,97941.84
2023-04-20T21:23:49.156Z,97943.63
2023-04-20T21:25:50.608Z,97940.25
2023-04-20T21:27:51.936Z,97948.81
2023-04-20T21:29:53.328Z,97944.56
2023-04-20T21:31:54.719Z,97944.63
2023-04-20T21:33:56.080Z,97938.66
2023-04-20T21:35:58.925Z,97941.28
2023-04-20T21:38:00.539Z,97943.00
2023-04-20T21:40:01.909Z,97939.72
2023-04-20T21:42:03.428Z,97936.41
2023-04-20T21:44:04.761Z,97937.38
2023-04-20T21:46:06.428Z,97939.16
2023-04-20T21:48:07.879Z,97944.31
2023-04-20T21:50:09.221Z,97941.03
2023-04-20T21:52:10.568Z,97938.53
2023-04-20T21:54:11.926Z,97941.13
2023-04-20T21:56:14.813Z,97939.47
2023-04-20T21:58:16.195Z,97946.28
2023-04-20T22:00:18.207Z,97945.44
2023-04-20T22:02:19.698Z,97936.97
2023-04-20T22:04:21.234Z,97937.84
2023-04-20T22:06:22.710Z,97946.41
2023-04-20T22:08:24.042Z,97937.09
2023-04-20T22:10:25.352Z,97943.06
2023-04-20T22:12:36.431Z,97941.34
2023-04-20T22:14:40.820Z,97940.44
2023-04-20T22:16:42.418Z,97938.72
2023-04-20T22:18:43.727Z,97944.66
2023-04-20T22:20:45.130Z,97939.53
2023-04-20T22:22:46.551Z,97944.63
2023-04-20T22:24:48.755Z,97937.69
2023-04-20T22:26:50.113Z,97938.50
2023-04-20T22:28:51.428Z,97941.03
2023-04-20T22:30:52.778Z,97937.56
2023-04-20T22:32:54.304Z,97946.84
2023-04-20T22:34:55.941Z,97945.91
2023-04-20T22:36:57.303Z,97941.59
2023-04-20T22:38:58.658Z,97949.16
2023-04-20T22:41:00.057Z,97940.63
2023-04-20T22:43:01.379Z,97944.88
2023-04-20T22:45:02.839Z,97951.59
2023-04-20T22:47:04.279Z,97948.09
2023-04-20T22:49:05.672Z,97946.28
2023-04-20T22:51:06.985Z,97948.00
2023-04-20T22:53:08.286Z,97950.56
2023-04-20T22:55:09.790Z,97942.97
2023-04-20T22:57:11.098Z,97947.25
2023-04-20T22:59:12.435Z,97939.59
2023-04-20T23:01:13.824Z,97948.19
2023-04-20T23:03:15.452Z,97952.56
2023-04-20T23:05:20.425Z,97948.31
2023-04-20T23:07:22.262Z,97944.97
2023-04-20T23:09:23.574Z,97945.03
2023-04-20T23:11:28.669Z,97939.06
2023-04-20T23:13:30.017Z,97950.72
2023-04-20T23:15:31.359Z,97948.19
2023-04-20T23:17:32.675Z,97939.31
2023-04-20T23:19:33.996Z,97943.72
2023-04-20T23:21:35.496Z,97949.63
2023-04-20T23:23:36.847Z,97947.06
2023-04-20T23:25:38.154Z,97941.94
2023-04-20T23:27:39.494Z,97941.09
2023-04-20T23:29:41.464Z,97941.03
2023-04-20T23:31:42.814Z,97941.03
2023-04-20T23:33:44.180Z,97935.91
2023-04-20T23:35:45.501Z,97936.75
2023-04-20T23:37:46.830Z,97939.34
2023-04-20T23:39:48.132Z,97947.78
2023-04-20T23:41:49.495Z,97943.59
2023-04-20T23:43:50.823Z,97929.97
2023-04-20T23:45:52.154Z,97941.88
2023-04-20T23:47:53.543Z,97938.41
2023-04-20T23:49:54.881Z,97936.63